Decoded Metar for LFMP (Perpignan in FRANCE) (IATA:PGF) | Meteo·Mobile Aviation Weather
aviador You're here:

LFMP Decoded Metar

Perpignan in FRANCE
Report Time2019-02-22 00:30:00
UTC Time2019-02-22 00:37:42
Flight Rules vfr VFR
Wind220° at 04 kt
W.Decomp.*RWY 15: 1.4 kt HW 3.8 kt RCW
RWY 13: 4.0 kt RCW
W.Rank220° ranks 27
Current wind is below 220° avg. (4.2)
Visibility9999 m
Phenomena:N/A
Clouds:N/A
Expected CloudBase > 2,400 ft AGL from Temp-Dew spread
CeilingNone
Temp09°C (ISA -6)
Dew Point03°C (66% RH)
AAT6.1°C
QNH1029 hPa
Density Alt-961 ft
Elevation157 ft
Report Wrong Elevation
Raw Report
METAR LFMP 220030Z AUTO 22004KT CAVOK 09/03 Q1029=

Extra information for LFMP:More info

Metar Taf Metar & Taf Last 4 Metars F.Rules Stats Wind Profile Meteogram Temp Stats Airport Information Weather charts Add Link Nearby VenuesMetar ALERT Operation Metar Decoded Social comments